Flyingcloud — MMWL2 — position and weather

sailwx.info

Track history (hours):
 
Tides and Currents Weather Stations Pressure Air Temp Water Temp Dewpoint Dewpoint Depression Visibility Wind Speed Wind Dir Waves Ship Positions

Flyingcloud

Last reported at 2016-May-03 14:33 UTC. Time now 2016-May-04 04:11 UTC.
Position N 50°37' W 001°57'.

Length 10 m.

Type: Fishing. MMSI: 235087339.

Date/timePositionNaut miles runAvg speedWind from/ knotsBaromVisibWave heightAir tempDewpointWater temp
2016-May-03 14:33N 50°37' W 001°57'1 0.3
2016-May-03 12:33N 50°36' W 001°57'  
2016-Apr-30 21:26N 50°37' W 001°57'1 1.3
2016-Apr-30 20:33N 50°38' W 001°56'0 0.0
2016-Apr-30 19:33N 50°38' W 001°56'4 3.2
2016-Apr-30 18:20N 50°41' W 001°54'1 0.9
2016-Apr-30 17:33N 50°41' W 001°55'5 4.9
2016-Apr-30 16:29N 50°36' W 001°57'0 0.0
2016-Apr-29 15:32N 50°36' W 001°57'0 0.0
2016-Apr-29 14:29N 50°36' W 001°57'0 0.0
2016-Apr-27 14:33N 50°37' W 001°57'0 0.2
2016-Apr-27 13:33N 50°37' W 001°57'7 6.0
2016-Apr-27 12:24N 50°42' W 002°04'1 0.5
2016-Apr-27 10:33N 50°41' W 002°05'0 0.0
2016-Apr-26 15:12N 50°42' W 002°05'  
Track history (hours):
 
Tides and Currents Weather Stations Pressure Air Temp Water Temp Dewpoint Dewpoint Depression Visibility Wind Speed Wind Dir Waves Ship Positions

Flyingcloud

Last reported at 2016-May-03 14:33 UTC. Time now 2016-May-04 04:11 UTC.
Position N 50°37' W 001°57'.

Length 10 m.

Type: Fishing. MMSI: 235087339.

Date/timePositionNaut miles runAvg speedWind from/ knotsBaromVisibWave heightAir tempDewpointWater temp
2016-May-03 14:33N 50°37' W 001°57'1 0.3
2016-May-03 12:33N 50°36' W 001°57'  
2016-Apr-30 21:26N 50°37' W 001°57'1 1.3
2016-Apr-30 20:33N 50°38' W 001°56'0 0.0
2016-Apr-30 19:33N 50°38' W 001°56'4 3.2
2016-Apr-30 18:20N 50°41' W 001°54'1 0.9
2016-Apr-30 17:33N 50°41' W 001°55'5 4.9
2016-Apr-30 16:29N 50°36' W 001°57'0 0.0
2016-Apr-29 15:32N 50°36' W 001°57'0 0.0
2016-Apr-29 14:29N 50°36' W 001°57'0 0.0
2016-Apr-27 14:33N 50°37' W 001°57'0 0.2
2016-Apr-27 13:33N 50°37' W 001°57'7 6.0
2016-Apr-27 12:24N 50°42' W 002°04'1 0.5
2016-Apr-27 10:33N 50°41' W 002°05'0 0.0
2016-Apr-26 15:12N 50°42' W 002°05'  

Dump ship's entire track history